Time;durP1;ratioP1;P1;durP2;ratioP2;P2;SDS_P1;SDS_P2;PMS_P1;PMS_P2;Temp;Humidity;BMP_temperature;BMP_pressure;BME280_temperature;BME280_humidity;BME280_pressure;Samples;Min_cycle;Max_cycle;Signal;HPM_P1;HPM_P2
2022/08/17 00:01:25;;;;;;;9.27;7.53;;;24.70;99.10;;;24.93;49.80;100485.41;4970379;28;97584;-51
2022/08/17 00:03:51;;;;;;;3.83;3.53;;;24.60;99.20;;;24.89;49.92;100489.41;4975633;28;97601;-48
2022/08/17 00:06:26;;;;;;;4.15;3.85;;;24.60;99.20;;;24.88;49.91;100489.53;4972766;28;99491;-49
2022/08/17 00:09:00;;;;;;;4.50;4.20;;;24.60;99.20;;;24.89;49.97;100493.97;4977479;28;98496;-47
2022/08/17 00:11:32;;;;;;;9.80;7.32;;;24.60;99.20;;;24.89;49.99;100496.66;4973276;28;98320;-52
2022/08/17 00:14:13;;;;;;;3.90;3.60;;;24.60;99.20;;;24.86;49.94;100499.63;4975636;27;99523;-49
2022/08/17 00:16:49;;;;;;;4.38;3.97;;;24.60;99.20;;;24.87;50.01;100490.53;4976509;28;101503;-50
2022/08/17 00:19:21;;;;;;;4.75;4.35;;;24.60;99.20;;;24.87;49.97;100482.44;4972597;28;97116;-52
2022/08/17 00:21:52;;;;;;;4.45;4.15;;;24.60;99.20;;;24.89;49.98;100488.56;4978437;28;97554;-48
2022/08/17 00:24:19;;;;;;;3.47;3.22;;;24.60;99.20;;;24.85;49.98;100482.59;5005354;28;97233;-48
2022/08/17 00:26:45;;;;;;;3.88;3.58;;;24.60;99.10;;;24.85;50.03;100481.75;5009083;28;97198;-46
2022/08/17 00:29:12;;;;;;;3.83;3.53;;;24.60;99.10;;;24.88;49.82;100484.13;5007289;28;97255;-47
2022/08/17 00:31:38;;;;;;;10.68;7.47;;;24.70;99.10;;;24.90;49.81;100490.25;5004788;28;96806;-52
2022/08/17 00:34:05;;;;;;;9.43;6.35;;;24.70;99.10;;;24.89;49.64;100488.56;5000262;28;98582;-51
2022/08/17 00:36:31;;;;;;;3.95;3.65;;;24.70;99.00;;;24.88;49.77;100492.22;4995663;28;98367;-47
2022/08/17 00:38:59;;;;;;;4.30;4.00;;;24.70;99.10;;;24.86;49.85;100494.22;4980257;28;97020;-49
2022/08/17 00:41:27;;;;;;;3.50;3.30;;;24.70;99.10;;;24.88;49.77;100481.44;4996067;28;98590;-53
2022/08/17 00:43:58;;;;;;;3.80;3.50;;;24.70;99.00;;;24.88;49.76;100481.44;5013441;28;97031;-49
2022/08/17 00:46:35;;;;;;;10.43;6.70;;;24.70;99.00;;;24.93;49.59;100484.56;5001744;28;102220;-52
2022/08/17 00:49:01;;;;;;;4.80;3.80;;;24.70;98.90;;;24.90;49.96;100480.31;4999388;28;97098;-50
2022/08/17 00:51:54;;;;;;;4.35;3.90;;;24.70;99.00;;;24.94;49.85;100470.06;5003177;28;97435;-47
2022/08/17 00:54:29;;;;;;;3.70;3.40;;;24.70;99.00;;;24.93;49.65;100468.38;4990354;28;97269;-49
2022/08/17 00:57:04;;;;;;;4.00;3.70;;;24.70;98.90;;;24.93;49.68;100474.63;4986980;28;98582;-47
2022/08/17 00:59:36;;;;;;;3.67;3.38;;;24.70;98.90;;;24.93;49.85;100473.75;4999978;28;98228;-48
2022/08/17 01:02:05;;;;;;;3.75;3.45;;;24.70;98.90;;;24.92;49.57;100464.81;5006946;28;97274;-47
2022/08/17 01:04:32;;;;;;;3.58;3.30;;;24.70;98.90;;;24.93;49.70;100457.56;4982060;28;98881;-50
2022/08/17 01:07:00;;;;;;;4.13;3.83;;;24.70;98.90;;;24.95;49.43;100455.56;4993411;28;97388;-50
2022/08/17 01:09:26;;;;;;;3.42;3.13;;;24.70;98.60;;;24.95;49.54;100452.88;4984273;28;97412;-51
2022/08/17 01:11:52;;;;;;;3.13;2.92;;;24.70;98.70;;;24.94;49.79;100451.19;4988709;28;97557;-50
2022/08/17 01:14:20;;;;;;;3.90;3.60;;;24.70;98.80;;;24.94;49.63;100453.88;4995884;28;97832;-52
2022/08/17 01:16:50;;;;;;;7.13;5.18;;;24.70;98.90;;;24.95;49.09;100452.88;5009238;28;97697;-50
2022/08/17 01:19:21;;;;;;;5.60;5.10;;;24.70;98.40;;;24.97;48.81;100460.81;5002419;28;98968;-47
2022/08/17 01:22:11;;;;;;;6.55;5.80;;;24.70;98.10;;;24.96;49.08;100462.66;4986716;28;97733;-50
2022/08/17 01:24:50;;;;;;;4.15;3.75;;;24.70;98.00;;;24.93;49.33;100466.50;4995644;28;104693;-48
2022/08/17 01:27:17;;;;;;;3.13;2.92;;;24.70;98.40;;;24.90;49.22;100474.06;5005462;28;97622;-50
2022/08/17 01:29:47;;;;;;;4.18;3.88;;;24.70;98.60;;;24.90;49.55;100474.91;5003941;28;97429;-50
2022/08/17 01:32:14;;;;;;;3.75;3.45;;;24.70;98.70;;;24.91;49.23;100475.78;4985637;28;97196;-47
2022/08/17 01:34:40;;;;;;;5.68;5.10;;;24.70;98.60;;;24.90;49.42;100466.81;4999920;28;97187;-49
2022/08/17 01:37:07;;;;;;;3.72;3.42;;;24.70;98.40;;;24.90;49.40;100468.69;4995730;28;96711;-47
2022/08/17 01:39:40;;;;;;;6.03;5.47;;;24.70;98.70;;;24.91;48.82;100465.81;5003137;28;97155;-49
2022/08/17 01:42:23;;;;;;;3.90;3.60;;;24.70;98.00;;;24.91;48.98;100471.22;4977931;28;98520;-49
2022/08/17 01:44:55;;;;;;;3.72;3.42;;;24.70;98.70;;;24.90;49.64;100468.69;4993887;28;97752;-47
2022/08/17 01:47:22;;;;;;;3.40;3.10;;;24.60;98.70;;;24.88;49.40;100476.03;4999501;28;97532;-53
2022/08/17 01:49:49;;;;;;;3.50;3.30;;;24.60;98.80;;;24.88;49.62;100476.03;5004824;28;96985;-47
2022/08/17 01:52:15;;;;;;;3.70;3.40;;;24.60;98.90;;;24.87;49.75;100469.81;5002949;28;98244;-47
2022/08/17 01:54:46;;;;;;;3.45;3.20;;;24.60;98.90;;;24.89;49.65;100475.06;4988518;28;97010;-48
2022/08/17 01:57:12;;;;;;;3.53;3.22;;;24.60;98.90;;;24.87;49.68;100475.19;4976287;28;97583;-49
2022/08/17 01:59:37;;;;;;;4.53;4.13;;;24.60;98.80;;;24.89;49.48;100469.69;4997824;28;97097;-48
2022/08/17 02:02:04;;;;;;;4.18;3.63;;;24.60;98.60;;;24.87;49.56;100469.81;4993512;28;97305;-47
2022/08/17 02:04:30;;;;;;;4.47;4.07;;;24.60;98.60;;;24.88;49.66;100481.44;4999966;28;97661;-45
2022/08/17 02:06:57;;;;;;;3.97;3.67;;;24.60;98.60;;;24.88;49.85;100486.84;4996899;28;97191;-47
2022/08/17 02:09:26;;;;;;;3.60;3.30;;;24.60;99.00;;;24.86;49.89;100486.13;4999739;28;97382;-45
2022/08/17 02:11:54;;;;;;;3.22;3.03;;;24.60;99.00;;;24.88;49.84;100486.84;4987714;28;97522;-49
2022/08/17 02:14:21;;;;;;;3.95;3.65;;;24.60;99.00;;;24.87;49.73;100474.34;4994854;28;101082;-47
2022/08/17 02:16:47;;;;;;;4.40;4.00;;;24.60;98.80;;;24.87;49.65;100482.44;5006353;28;97192;-51
2022/08/17 02:19:15;;;;;;;3.22;3.03;;;24.60;98.80;;;24.87;49.82;100479.75;4992251;28;98086;-48
2022/08/17 02:21:44;;;;;;;3.75;3.53;;;24.60;99.10;;;24.87;49.71;100485.13;5000022;28;96986;-50
2022/08/17 02:24:20;;;;;;;5.65;5.00;;;24.60;98.80;;;24.88;49.32;100479.63;4998098;28;97420;-51
2022/08/17 02:26:46;;;;;;;3.80;3.50;;;24.60;98.50;;;24.86;49.92;100480.75;5006762;28;97309;-51
2022/08/17 02:29:14;;;;;;;3.33;3.10;;;24.60;99.10;;;24.86;50.02;100478.06;4986070;28;97164;-48
2022/08/17 02:31:41;;;;;;;3.60;3.30;;;24.60;99.20;;;24.86;49.74;100475.34;5005563;28;97680;-47
2022/08/17 02:34:07;;;;;;;3.20;3.00;;;24.60;99.00;;;24.86;49.90;100478.06;4989903;28;97484;-47
2022/08/17 02:36:34;;;;;;;3.53;3.30;;;24.60;99.20;;;24.86;49.96;100472.66;5000126;27;97144;-46
2022/08/17 02:39:04;;;;;;;3.25;3.05;;;24.60;99.20;;;24.87;49.91;100474.34;4992458;28;97147;-53
2022/08/17 02:41:30;;;;;;;3.80;3.50;;;24.60;99.50;;;24.88;49.92;100473.34;4977983;28;97365;-47
2022/08/17 02:43:55;;;;;;;3.58;3.28;;;24.60;99.10;;;24.87;49.93;100475.19;5002090;28;97862;-47
2022/08/17 02:46:21;;;;;;;3.47;3.15;;;24.60;99.10;;;24.88;49.91;100476.03;5005854;28;101432;-46
2022/08/17 02:48:47;;;;;;;3.40;3.20;;;24.60;99.10;;;24.88;49.62;100465.25;4996630;28;97246;-48
2022/08/17 02:51:13;;;;;;;3.45;3.25;;;24.60;98.60;;;24.87;49.89;100469.81;5005206;28;96785;-46
2022/08/17 02:53:39;;;;;;;4.30;4.00;;;24.60;99.10;;;24.87;49.66;100471.66;4994295;28;98314;-46
2022/08/17 02:56:05;;;;;;;3.58;3.35;;;24.60;98.60;;;24.85;50.02;100469.09;4999789;28;97132;-49
2022/08/17 02:58:31;;;;;;;4.05;3.75;;;24.60;99.20;;;24.85;49.61;100470.97;4981003;28;97496;-46
2022/08/17 03:00:57;;;;;;;3.78;3.47;;;24.60;98.90;;;24.84;49.59;100474.66;5009190;28;97087;-48
2022/08/17 03:03:23;;;;;;;4.10;3.80;;;24.50;98.60;;;24.82;49.93;100466.72;4997091;28;99805;-49
2022/08/17 03:05:50;;;;;;;3.15;2.95;;;24.50;98.90;;;24.82;49.97;100471.28;5002173;28;97347;-46
2022/08/17 03:08:17;;;;;;;3.13;2.92;;;24.50;99.30;;;24.82;50.01;100469.41;4994612;28;97514;-47
2022/08/17 03:10:44;;;;;;;3.72;3.20;;;24.60;99.10;;;24.81;50.10;100473.13;5003557;28;97468;-48
2022/08/17 03:13:13;;;;;;;3.88;3.58;;;24.60;99.20;;;24.80;50.09;100467.88;4985434;28;98848;-48
2022/08/17 03:15:43;;;;;;;3.38;3.17;;;24.60;99.30;;;24.82;50.17;100463.19;5004346;28;99700;-48
2022/08/17 03:18:12;;;;;;;3.33;3.13;;;24.60;99.20;;;24.81;49.70;100464.19;4996369;28;97657;-48
2022/08/17 03:20:38;;;;;;;3.60;3.30;;;24.60;99.10;;;24.81;50.10;100464.19;5007590;28;97211;-48
2022/08/17 03:23:04;;;;;;;3.80;3.50;;;24.60;99.30;;;24.81;50.05;100459.63;4996787;28;99209;-47
2022/08/17 03:25:38;;;;;;;3.55;3.35;;;24.60;99.20;;;24.83;50.00;100462.19;4996072;28;97604;-46
2022/08/17 03:28:05;;;;;;;4.78;4.20;;;24.60;99.20;;;24.82;49.48;100465.88;5004189;28;97192;-48
2022/08/17 03:30:32;;;;;;;3.13;2.92;;;24.60;98.50;;;24.82;49.96;100466.72;5004792;28;97265;-51
2022/08/17 03:33:02;;;;;;;3.38;3.17;;;24.60;99.20;;;24.82;50.12;100472.13;5004994;28;98854;-48
2022/08/17 03:35:32;;;;;;;3.58;3.28;;;24.60;99.20;;;24.82;50.02;100472.13;5002191;28;102676;-48
2022/08/17 03:37:59;;;;;;;3.42;3.20;;;24.60;99.30;;;24.82;50.02;100466.72;4995207;28;97184;-46
2022/08/17 03:40:25;;;;;;;3.40;3.15;;;24.60;99.30;;;24.82;50.16;100465.88;4996617;28;97919;-49
2022/08/17 03:42:53;;;;;;;3.45;3.25;;;24.60;99.20;;;24.84;49.93;100453.06;5005460;28;97786;-47
2022/08/17 03:56:41;;;;;;;2.92;2.72;;;24.60;99.20;;;24.81;50.23;100469.56;5003524;28;101638;-49
2022/08/17 03:59:20;;;;;;;3.30;3.10;;;24.60;99.40;;;24.83;49.99;100472.97;5001492;28;97299;-51
2022/08/17 04:01:50;;;;;;;3.17;2.97;;;24.60;99.30;;;24.83;50.23;100472.97;4999506;28;97189;-50
2022/08/17 04:04:17;;;;;;;3.15;2.88;;;24.60;99.20;;;24.85;50.12;100473.66;4991284;28;97376;-47
2022/08/17 04:06:43;;;;;;;3.30;3.10;;;24.60;98.90;;;24.84;50.14;100474.66;4996550;28;97007;-49
2022/08/17 04:09:09;;;;;;;3.50;3.25;;;24.60;99.20;;;24.83;49.98;100473.81;5001916;28;97139;-50
2022/08/17 04:11:36;;;;;;;3.22;2.92;;;24.60;98.90;;;24.82;50.12;100461.31;5003993;28;96784;-48
2022/08/17 04:14:03;;;;;;;3.45;3.25;;;24.60;99.30;;;24.84;50.20;100463.88;4989672;28;97743;-46
2022/08/17 04:16:32;;;;;;;3.42;3.22;;;24.60;99.30;;;24.84;50.20;100469.25;5011386;28;97112;-49
2022/08/17 04:18:57;;;;;;;3.33;3.13;;;24.60;99.30;;;24.82;50.22;100471.28;5003631;28;97187;-48
2022/08/17 04:21:23;;;;;;;3.40;3.20;;;24.60;99.30;;;24.82;50.35;100482.06;4995359;28;101184;-48
2022/08/17 04:23:50;;;;;;;3.63;3.33;;;24.60;99.30;;;24.82;50.24;100482.91;4977418;28;99775;-48
2022/08/17 04:26:17;;;;;;;3.58;3.33;;;24.60;99.30;;;24.84;50.18;100488.16;4992703;28;99582;-49
2022/08/17 04:28:43;;;;;;;3.42;3.15;;;24.60;99.20;;;24.85;50.14;100495.22;5007811;28;97143;-49
2022/08/17 04:31:12;;;;;;;3.55;3.25;;;24.70;99.20;;;24.87;50.12;100485.13;5008026;28;97459;-46
2022/08/17 04:33:41;;;;;;;3.88;3.58;;;24.70;99.30;;;24.87;49.97;100490.53;5000328;28;97483;-47
2022/08/17 04:36:07;;;;;;;3.67;3.38;;;24.70;98.80;;;24.87;50.07;100486.00;4992792;28;97331;-48
2022/08/17 04:38:38;;;;;;;3.60;3.33;;;24.70;99.20;;;24.89;49.93;100483.16;4996040;28;97167;-49
2022/08/17 04:43:54;;;;;;;4.00;3.65;;;24.70;99.20;;;24.86;50.17;100483.44;4997974;28;97114;-52
2022/08/17 04:46:31;;;;;;;3.83;3.53;;;24.70;99.30;;;24.89;50.12;100480.47;5002304;28;97305;-48
2022/08/17 04:48:59;;;;;;;4.05;3.70;;;24.70;99.20;;;24.89;50.17;100480.47;5011451;28;97384;-48
2022/08/17 04:51:32;;;;;;;4.03;3.60;;;24.70;99.20;;;24.89;49.96;100488.56;5011311;28;96773;-51
2022/08/17 04:54:04;;;;;;;3.90;3.60;;;24.70;99.20;;;24.89;50.07;100494.81;5010104;28;99334;-48
2022/08/17 04:56:32;;;;;;;4.03;3.72;;;24.70;99.20;;;24.89;50.05;100493.97;4996684;27;100465;-50
2022/08/17 04:59:02;;;;;;;4.25;3.40;;;24.70;99.20;;;24.90;50.03;100487.56;4996840;28;97824;-48
2022/08/17 05:01:32;;;;;;;4.63;3.92;;;24.70;99.20;;;24.90;49.95;100501.06;5001316;28;96930;-46
2022/08/17 05:04:01;;;;;;;4.40;3.88;;;24.70;99.20;;;24.90;50.02;100501.06;4983890;28;97364;-49
2022/08/17 05:06:28;;;;;;;4.28;3.88;;;24.70;99.20;;;24.90;49.97;100501.06;4978883;28;100817;-50
2022/08/17 05:08:57;;;;;;;5.22;3.83;;;24.70;99.10;;;24.90;49.95;100501.06;4994051;28;98554;-51
2022/08/17 05:11:25;;;;;;;5.22;3.72;;;24.70;99.00;;;24.91;48.86;100491.94;4994918;28;97316;-50
2022/08/17 05:13:52;;;;;;;5.00;3.58;;;24.70;98.10;;;24.91;49.98;100489.25;5002162;28;98070;-50
2022/08/17 05:16:20;;;;;;;4.07;3.67;;;24.70;99.00;;;24.90;50.00;100490.25;4992112;28;97230;-51
2022/08/17 05:18:47;;;;;;;4.00;3.60;;;24.70;99.20;;;24.89;50.00;100493.97;4999543;28;97556;-49
2022/08/17 05:21:13;;;;;;;4.40;4.00;;;24.70;99.20;;;24.87;50.10;100493.22;4997095;28;100132;-54
2022/08/17 05:23:40;;;;;;;4.28;3.88;;;24.70;99.20;;;24.87;50.08;100493.22;4989420;28;97695;-56
2022/08/17 05:26:08;;;;;;;4.43;3.67;;;24.70;99.20;;;24.87;50.13;100479.75;4981039;28;98439;-54
2022/08/17 05:28:34;;;;;;;4.13;3.67;;;24.70;99.20;;;24.87;50.11;100486.00;4995043;28;97168;-57
2022/08/17 05:31:02;;;;;;;4.03;3.70;;;24.70;99.20;;;24.89;50.15;100483.16;4999110;28;100720;-57
2022/08/17 05:33:33;;;;;;;3.85;3.55;;;24.70;99.10;;;24.91;50.00;100482.00;5000820;28;97320;-55
2022/08/17 05:36:02;;;;;;;3.75;3.45;;;24.70;99.10;;;24.92;49.88;100477.47;4993731;28;98382;-54
2022/08/17 05:38:29;;;;;;;5.57;3.95;;;24.80;99.10;;;24.89;50.12;100480.47;4998431;28;100130;-49
2022/08/17 05:40:56;;;;;;;4.25;3.85;;;24.70;99.10;;;24.90;50.13;100477.63;4972970;28;98187;-53
2022/08/17 05:43:36;;;;;;;3.72;3.42;;;24.80;99.20;;;24.93;49.88;100473.75;4994227;28;97585;-55
2022/08/17 05:46:26;;;;;;;4.38;3.35;;;24.80;99.10;;;24.95;50.13;100476.31;5004246;28;97268;-50
2022/08/17 05:48:59;;;;;;;4.28;3.55;;;24.80;99.10;;;24.93;49.79;100487.25;5001054;28;97742;-56
2022/08/17 05:52:07;;;;;;;4.28;3.85;;;24.80;99.10;;;24.92;49.89;100494.50;4978385;28;97274;-53
2022/08/17 05:55:08;;;;;;;3.97;3.67;;;24.80;99.10;;;24.92;49.97;100485.56;4975856;28;101304;-53
2022/08/17 05:57:47;;;;;;;6.07;4.22;;;24.70;99.10;;;24.93;48.58;100479.16;4991916;28;101618;-59
2022/08/17 06:00:25;;;;;;;6.25;4.30;;;24.70;97.50;;;24.92;48.91;100480.16;4996118;28;97319;-55
2022/08/17 06:03:30;;;;;;;4.72;4.28;;;24.70;97.80;;;24.92;49.40;100477.47;4985175;28;96823;-55
2022/08/17 06:06:07;;;;;;;4.45;3.95;;;24.70;98.30;;;24.88;49.84;100487.72;4977485;28;102559;-55
2022/08/17 06:08:48;;;;;;;3.90;3.50;;;24.60;98.80;;;24.89;49.72;100485.88;5005968;28;100761;-51
2022/08/17 06:11:22;;;;;;;9.80;5.15;;;24.60;98.80;;;24.84;47.75;100501.63;4981666;28;97494;-56
2022/08/17 06:14:30;;;;;;;7.97;4.22;;;24.60;97.80;;;24.76;47.78;100525.81;4990074;28;97197;-57
2022/08/17 06:17:04;;;;;;;6.47;4.68;;;24.50;98.20;;;24.66;50.08;100533.09;4974082;28;102937;-56
2022/08/17 06:19:38;;;;;;;3.90;3.60;;;24.40;99.00;;;24.66;50.39;100531.25;5001964;28;102954;-54
2022/08/17 06:22:05;;;;;;;5.03;4.43;;;24.40;99.30;;;24.70;49.19;100529.09;4975962;28;97152;-55
2022/08/17 06:24:55;;;;;;;4.63;4.10;;;24.50;98.70;;;24.72;50.03;100537.88;4997573;28;96677;-58
2022/08/17 06:27:43;;;;;;;5.55;4.47;;;24.50;98.80;;;24.72;49.93;100536.03;4993474;28;98272;-52
2022/08/17 06:30:25;;;;;;;5.32;4.40;;;24.50;98.60;;;24.71;49.79;100553.22;4970497;28;97970;-57
2022/08/17 06:32:58;;;;;;;5.63;4.78;;;24.50;98.90;;;24.70;49.55;100558.75;4980994;28;97190;-58
2022/08/17 06:36:03;;;;;;;6.57;4.53;;;24.50;98.60;;;24.71;50.06;100528.09;4985945;27;97591;-56
2022/08/17 06:38:45;;;;;;;8.38;4.60;;;24.50;99.10;;;24.72;49.10;100545.97;5000144;28;100798;-54
2022/08/17 06:41:36;;;;;;;5.70;4.50;;;24.50;98.50;;;24.70;49.23;100558.75;4998298;28;98115;-53
2022/08/17 06:44:16;;;;;;;5.60;4.68;;;24.50;98.60;;;24.71;49.61;100565.84;4997523;28;96737;-58
2022/08/17 06:46:51;;;;;;;6.82;4.85;;;24.50;98.20;;;24.76;49.19;100558.19;4989355;28;97011;-52
2022/08/17 06:49:35;;;;;;;10.30;4.95;;;24.50;98.10;;;24.78;49.84;100548.09;4983369;28;97659;-56
2022/08/17 06:52:17;;;;;;;9.95;4.53;;;24.60;98.80;;;24.78;49.64;100556.19;4995787;28;96970;-52
2022/08/17 06:55:08;;;;;;;6.05;4.28;;;24.60;98.70;;;24.82;49.33;100563.81;5005652;28;97458;-49
2022/08/17 06:57:50;;;;;;;4.90;4.43;;;24.60;98.80;;;24.83;49.15;100565.53;4979562;28;97640;-49
2022/08/17 07:00:21;;;;;;;8.35;5.15;;;24.60;98.30;;;24.85;48.86;100570.75;5004341;28;98343;-53
2022/08/17 07:03:15;;;;;;;6.88;4.88;;;24.60;98.40;;;24.87;48.65;100566.06;4986260;28;97791;-49
2022/08/17 07:05:50;;;;;;;7.28;4.75;;;24.70;98.00;;;24.88;48.09;100567.75;4996055;28;98459;-54
2022/08/17 07:08:53;;;;;;;5.50;4.60;;;24.70;97.60;;;24.91;47.84;100567.50;4979766;28;99490;-55
2022/08/17 07:11:30;;;;;;;7.05;4.72;;;24.70;97.30;;;24.92;48.50;100590.78;5001603;28;97373;-54
2022/08/17 07:14:30;;;;;;;5.50;4.40;;;24.70;97.70;;;24.91;49.42;100579.13;4980446;28;97117;-53
2022/08/17 07:17:00;;;;;;;6.28;4.25;;;24.70;98.70;;;24.92;49.24;100569.19;5003037;28;99227;-57
2022/08/17 07:19:32;;;;;;;4.57;4.10;;;24.70;98.50;;;24.92;49.46;100564.63;4984536;28;97648;-55
2022/08/17 07:22:19;;;;;;;5.63;4.90;;;24.70;98.70;;;24.98;47.64;100563.19;4999845;28;97026;-54
2022/08/17 07:25:05;;;;;;;5.45;4.72;;;24.70;97.50;;;24.96;49.16;100554.38;4996880;28;101741;-56
2022/08/17 07:27:36;;;;;;;4.75;4.30;;;24.70;98.50;;;24.97;48.46;100558.78;4983893;28;97459;-55
2022/08/17 07:30:26;;;;;;;8.02;4.60;;;24.80;98.10;;;24.99;48.65;100556.78;4983733;28;97667;-52
2022/08/17 07:32:58;;;;;;;4.50;4.03;;;24.80;98.20;;;24.93;49.28;100560.94;5006941;28;98236;-53
2022/08/17 07:35:42;;;;;;;7.05;4.95;;;24.80;98.60;;;24.96;49.16;100559.78;5008248;28;97595;-56
2022/08/17 07:38:24;;;;;;;7.18;4.82;;;24.80;98.50;;;24.98;49.28;100568.56;4996380;28;97106;-57
2022/08/17 07:40:56;;;;;;;7.80;6.80;;;24.80;98.50;;;25.02;49.34;100585.34;4995858;28;97228;-54
2022/08/17 07:43:40;;;;;;;5.70;5.07;;;24.80;98.70;;;25.02;49.21;100590.75;4995712;28;97445;-54
2022/08/17 07:49:33;;;;;;;12.10;7.28;;;24.80;98.70;;;25.00;49.48;100609.78;4985246;28;97066;-53
2022/08/17 07:52:07;;;;;;;10.32;7.15;;;24.80;98.80;;;24.99;49.35;100616.13;5005360;28;97569;-57
2022/08/17 07:54:35;;;;;;;6.30;5.65;;;24.80;98.70;;;24.99;49.47;100618.84;5005465;28;100318;-54
2022/08/17 07:57:10;;;;;;;10.07;8.13;;;24.80;98.70;;;25.00;49.44;100622.38;5002979;28;98115;-56
2022/08/17 07:59:40;;;;;;;8.70;7.80;;;24.80;98.70;;;25.00;49.56;100620.56;5008008;28;97424;-56
2022/08/17 08:02:15;;;;;;;9.80;8.20;;;24.80;98.80;;;24.97;49.67;100610.03;4983541;28;97436;-57
2022/08/17 08:04:49;;;;;;;10.80;8.50;;;24.80;98.90;;;24.98;49.54;100611.75;4999105;28;97238;-53
2022/08/17 08:07:15;;;;;;;10.93;7.80;;;24.80;98.90;;;24.97;49.64;100614.59;4997861;28;97453;-50
2022/08/17 08:10:13;;;;;;;12.82;8.93;;;24.80;98.90;;;25.05;49.83;100621.00;5013291;28;97208;-55
2022/08/17 08:12:45;;;;;;;8.23;7.10;;;24.80;99.10;;;25.02;49.62;100623.97;5002026;28;97567;-58
2022/08/17 08:15:32;;;;;;;11.23;8.43;;;24.80;98.80;;;24.98;49.67;100619.00;4984467;28;97912;-55
2022/08/17 08:18:18;;;;;;;10.50;9.23;;;24.80;99.00;;;24.99;49.69;100613.44;5009613;28;98910;-55
2022/08/17 08:21:00;;;;;;;9.88;8.23;;;24.80;98.90;;;24.99;49.40;100628.78;4994362;28;97221;-53
2022/08/17 08:23:36;;;;;;;10.57;9.07;;;24.80;98.90;;;24.99;49.43;100626.94;4981345;28;97267;-53
2022/08/17 08:26:41;;;;;;;10.43;9.45;;;24.80;98.90;;;24.97;49.28;100623.53;4998220;28;98185;-53
2022/08/17 08:29:39;;;;;;;11.98;9.35;;;24.80;99.00;;;25.00;49.69;100636.75;4997984;28;98485;-53
2022/08/17 08:32:47;;;;;;;7.85;7.15;;;24.80;99.00;;;24.99;49.71;100629.63;4996172;28;97429;-57
2022/08/17 08:35:52;;;;;;;10.85;9.43;;;24.80;99.10;;;24.96;49.85;100629.94;4981388;28;97283;-55
2022/08/17 08:38:52;;;;;;;10.95;8.85;;;24.80;99.10;;;24.93;49.68;100632.94;4950455;28;98252;-57
2022/08/17 08:41:37;;;;;;;11.50;10.07;;;24.80;99.10;;;24.94;49.82;100629.25;4975347;28;97456;-53
2022/08/17 08:44:28;;;;;;;11.73;10.68;;;24.80;99.10;;;24.95;49.87;100628.25;4991891;28;97211;-53
2022/08/17 08:47:26;;;;;;;14.43;11.13;;;24.80;99.20;;;24.98;49.77;100633.31;5001921;28;96951;-54
2022/08/17 08:50:12;;;;;;;11.95;10.25;;;24.80;99.20;;;25.01;49.83;100632.22;4998436;28;101012;-55
2022/08/17 08:53:02;;;;;;;14.18;11.50;;;24.80;99.20;;;24.98;49.86;100622.53;4999796;28;102503;-55
2022/08/17 08:55:48;;;;;;;11.05;10.05;;;24.80;99.10;;;25.01;49.86;100627.66;5003622;28;97422;-55
2022/08/17 08:58:49;;;;;;;10.77;9.48;;;24.80;99.20;;;25.02;49.91;100618.56;4990657;28;97089;-52
2022/08/17 09:02:09;;;;;;;12.02;10.90;;;24.80;99.50;;;25.03;49.97;100625.69;4996566;28;97976;-53
2022/08/17 09:05:06;;;;;;;12.98;11.55;;;24.80;99.40;;;24.93;50.13;100630.25;5005018;28;99901;-51
2022/08/17 09:07:54;;;;;;;12.68;9.40;;;24.80;99.40;;;24.95;50.15;100641.72;4993551;28;99097;-51
2022/08/17 09:10:28;;;;;;;11.80;10.63;;;24.70;99.40;;;24.93;50.21;100635.63;4998997;28;97243;-53
2022/08/17 09:13:20;;;;;;;12.07;10.95;;;24.70;99.40;;;24.91;50.26;100637.63;4991935;28;97347;-56
2022/08/17 09:16:14;;;;;;;13.23;10.70;;;24.70;99.40;;;24.90;50.54;100644.03;5000137;28;99578;-57
2022/08/17 09:18:50;;;;;;;12.57;11.38;;;24.70;99.60;;;24.90;50.44;100631.38;5005216;28;97157;-51
2022/08/17 09:21:43;;;;;;;11.80;10.63;;;24.70;99.60;;;24.92;50.31;100636.63;4990113;28;96881;-52
2022/08/17 09:24:39;;;;;;;12.60;11.48;;;24.70;99.60;;;24.91;50.18;100637.63;4999117;28;97566;-56
2022/08/17 09:27:19;;;;;;;12.63;11.35;;;24.70;99.60;;;24.93;50.47;100631.09;4978368;28;97270;-57
2022/08/17 09:29:52;;;;;;;14.13;12.00;;;24.80;99.60;;;24.95;50.52;100639.03;4982337;28;97072;-55
2022/08/17 09:32:42;;;;;;;12.10;10.85;;;24.80;99.70;;;24.97;50.26;100642.44;4981898;28;97144;-54
2022/08/17 09:35:23;;;;;;;12.73;11.52;;;24.80;99.50;;;24.95;50.36;100646.28;4997973;28;99044;-55
2022/08/17 09:38:18;;;;;;;12.10;10.98;;;24.80;99.60;;;24.96;50.33;100640.72;4993369;28;98146;-52
2022/08/17 09:41:12;;;;;;;12.23;11.02;;;24.80;99.50;;;24.94;50.41;100631.94;4982430;28;96998;-56
2022/08/17 09:44:15;;;;;;;8.93;8.13;;;24.80;99.50;;;24.94;50.31;100648.13;4997963;28;97769;-58
2022/08/17 09:47:19;;;;;;;16.02;11.50;;;24.80;99.50;;;24.99;50.52;100656.63;4967324;28;104594;-49
2022/08/17 09:50:14;;;;;;;8.75;7.97;;;24.80;99.80;;;24.95;50.23;100657.91;4962676;28;101505;-54
2022/08/17 09:52:41;;;;;;;15.45;11.73;;;24.80;99.50;;;24.89;50.34;100658.50;4978223;28;97210;-53
2022/08/17 09:55:07;;;;;;;13.45;12.05;;;24.70;99.50;;;24.91;50.35;100661.91;4998652;28;97725;-56
2022/08/17 09:57:57;;;;;;;9.52;8.65;;;24.80;99.60;;;24.90;50.49;100662.91;4998940;28;97562;-54
2022/08/17 10:00:36;;;;;;;13.35;12.00;;;24.70;99.50;;;24.91;50.21;100664.59;4980809;28;97244;-53
2022/08/17 10:03:14;;;;;;;13.77;12.43;;;24.80;99.50;;;24.91;50.43;100664.59;4980475;28;97315;-55
2022/08/17 10:05:52;;;;;;;13.38;11.75;;;24.70;99.50;;;24.90;50.28;100663.75;5001877;28;97452;-54
2022/08/17 10:08:51;;;;;;;12.55;11.35;;;24.70;99.50;;;24.92;50.36;100666.31;4994776;28;97451;-51
2022/08/17 10:15:32;;;;;;;12.05;10.02;;;24.80;99.50;;;24.90;50.69;100662.91;5002254;28;97597;-52
2022/08/17 10:18:40;;;;;;;9.85;8.98;;;24.70;99.60;;;24.79;50.68;100661.22;4954227;28;98820;-54
2022/08/17 10:27:19;;;;;;;14.90;13.07;;;24.70;99.80;;;24.84;51.17;100631.97;4913098;28;97651;-54
2022/08/17 10:30:15;;;;;;;13.98;12.68;;;24.70;99.90;;;24.79;51.28;100628.88;4973436;28;97693;-52
2022/08/17 10:32:59;;;;;;;14.18;12.52;;;24.60;99.90;;;24.82;51.32;100633.09;4976214;28;102997;-53
2022/08/17 10:35:32;;;;;;;15.20;13.43;;;24.60;99.90;;;24.78;51.48;100621.78;4984511;28;97428;-52
2022/08/17 10:38:24;;;;;;;13.82;12.52;;;24.60;99.90;;;24.85;50.69;100624.72;4983885;28;98855;-48
2022/08/17 10:41:30;;;;;;;12.30;11.10;;;24.60;99.90;;;24.88;51.90;100627.13;4999628;28;97262;-53
2022/08/17 10:44:03;;;;;;;14.52;13.13;;;24.70;99.90;;;24.85;51.59;100630.09;4988445;28;101626;-51
2022/08/17 10:46:54;;;;;;;15.48;13.98;;;24.60;99.90;;;24.87;51.22;100637.06;4979352;28;101672;-54
2022/08/17 10:49:20;;;;;;;13.55;12.25;;;24.70;99.90;;;24.86;51.20;100635.34;4993096;28;97205;-54
2022/08/17 10:52:00;;;;;;;15.43;13.90;;;24.70;99.90;;;24.93;52.23;100649.13;5005954;28;97591;-49
2022/08/17 10:54:37;;;;;;;14.82;13.30;;;24.70;99.90;;;24.92;52.14;100647.41;4987037;28;104571;-50
2022/08/17 10:57:28;;;;;;;15.23;13.60;;;24.70;99.90;;;24.92;52.08;100645.56;5011408;28;97261;-51
2022/08/17 10:59:57;;;;;;;15.27;13.73;;;24.70;99.90;;;24.92;52.69;100652.81;4997444;28;97399;-56
2022/08/17 11:02:35;;;;;;;16.95;15.25;;;24.70;99.90;;;24.95;52.80;100649.81;4998612;28;97340;-52
2022/08/17 11:05:39;;;;;;;16.27;14.65;;;24.70;99.90;;;24.92;52.36;100650.97;4995814;28;98897;-55
2022/08/17 11:08:23;;;;;;;17.30;15.20;;;24.80;99.90;;;24.89;52.43;100663.91;4983963;28;99684;-55
2022/08/17 11:11:19;;;;;;;17.33;15.63;;;24.70;99.90;;;24.94;52.06;100653.53;4991133;28;97201;-49
2022/08/17 11:14:12;;;;;;;14.10;12.68;;;24.80;99.90;;;24.84;52.83;100658.09;5000243;28;98541;-58